EBOS/OST METAR and TAF weather

Enter ICAO airport designator
Station Type Date Time Source
EBOS METAR 2019/06/17 13:20 UTC NOAA

EBOS 171320Z 31008KT CAVOK 18/14 Q1019 NOSIG


Station Type Date Time Source
EBOS Decoded METAR 2019/06/17 13:20 UTC NOAA

Oostende Airport , Belgium (EBOS) 51-12N 002-52E 5M
Jun 17, 2019 - 09:20 AM EDT / 2019.06.17 1320 UTC
Wind: from the NW (310 degrees) at 9 MPH (8 KT):0
Visibility: greater than 7 mile(s):0
Temperature: 64 F (18 C)
Dew Point: 57 F (14 C)
Relative Humidity: 77%
Pressure (altimeter): 30.09 in. Hg (1019 hPa)
ob: EBOS 171320Z 31008KT CAVOK 18/14 Q1019 NOSIG
cycle: 13

Station Type Date Time Source
EBOS TAF 2019/06/17 12:27 UTC NOAA

TAF EBOS 171110Z 1712/1818 31008KT SCT030 PROB30
TEMPO 1815/1818 SHRA TSRA

Example: see airport list